Streator East, Illinois
Current Conditions -  °F | °C
As of 10:35 PM on Wednesday 26 Nov 2014 (Local Time) from KPNT Reporting Station
Overcast Overcast  
Wind Chill: 19°   Ceiling: 2800
Heat Index: 26°   Visibility: 7mi
Dew Point: 23°   Wind: 6mph
Humidity: 88%   Direction: 320°NW
Pressure: 30.21"   Gusts: NA
Location:  41.1182°N, 88.8294°W
Report Text: KPNT 270435Z AUTO 32005KT 7SM OVC028 M03/M05 A3021 RMK AO2 T10341052
Loading
Personal Weather Stations






























Interactive Weather Map New forecast layout! Learn more

10-Day Weather Forecast

Advertisements
Track Severe Weather on mobile